Time;durP1;ratioP1;P1;durP2;ratioP2;P2;SDS_P1;SDS_P2;PMS_P1;PMS_P2;Temp;Humidity;BMP_temperature;BMP_pressure;BME280_temperature;BME280_humidity;BME280_pressure;Samples;Min_cycle;Max_cycle;Signal;HPM_P1;HPM_P2
2023/09/28 00:00:49;;;;;;;20.63;15.50;;;16.10;99.90;;;;;;5045458;28;20100;-58
2023/09/28 00:03:14;;;;;;;19.10;14.75;;;16.10;99.90;;;;;;5043630;28;20112;-57
2023/09/28 00:05:40;;;;;;;16.63;14.50;;;16.10;99.90;;;;;;5046400;28;20107;-58
2023/09/28 00:08:06;;;;;;;19.15;13.93;;;16.00;99.90;;;;;;5044934;28;20017;-58
2023/09/28 00:10:31;;;;;;;16.60;14.35;;;16.00;99.90;;;;;;5046190;28;20036;-58
2023/09/28 00:12:58;;;;;;;20.17;16.13;;;16.00;99.90;;;;;;5045677;28;20092;-58
2023/09/28 00:15:26;;;;;;;23.20;15.73;;;16.00;99.90;;;;;;5047458;28;20047;-57
2023/09/28 00:17:54;;;;;;;25.00;15.15;;;16.10;99.90;;;;;;5045465;28;20036;-57
2023/09/28 00:20:22;;;;;;;19.20;14.18;;;16.10;99.90;;;;;;5047124;28;20029;-58
2023/09/28 00:22:50;;;;;;;20.27;14.60;;;16.00;99.90;;;;;;5045578;28;20462;-57
2023/09/28 00:25:16;;;;;;;20.27;15.13;;;15.90;99.90;;;;;;5044401;28;20108;-58
2023/09/28 00:27:44;;;;;;;19.55;14.48;;;15.90;99.90;;;;;;5048335;28;20024;-59
2023/09/28 00:30:12;;;;;;;17.20;13.80;;;15.80;99.90;;;;;;5046067;28;20022;-58
2023/09/28 00:32:38;;;;;;;22.17;16.90;;;15.80;99.90;;;;;;5048143;28;20041;-57
2023/09/28 00:35:05;;;;;;;20.90;15.13;;;15.80;99.90;;;;;;5042879;28;20375;-57
2023/09/28 00:37:31;;;;;;;21.63;15.43;;;15.80;99.90;;;;;;5047877;28;20033;-58
2023/09/28 00:39:58;;;;;;;25.10;16.15;;;15.80;99.90;;;;;;5046582;28;20032;-58
2023/09/28 00:42:24;;;;;;;22.13;16.42;;;15.70;99.90;;;;;;5044642;28;20424;-58
2023/09/28 00:44:51;;;;;;;26.23;15.85;;;15.70;99.90;;;;;;5048249;28;20055;-57
2023/09/28 00:47:16;;;;;;;19.60;14.90;;;15.80;99.90;;;;;;5038474;28;20116;-57
2023/09/28 00:49:43;;;;;;;16.35;13.57;;;15.70;99.90;;;;;;5048204;28;20111;-57
2023/09/28 00:52:10;;;;;;;21.10;15.57;;;15.70;99.90;;;;;;5047581;28;20390;-58
2023/09/28 00:54:36;;;;;;;20.73;15.57;;;15.70;99.90;;;;;;5044872;28;20407;-58
2023/09/28 00:57:02;;;;;;;18.75;13.88;;;15.60;99.90;;;;;;5045358;28;20499;-58
2023/09/28 00:59:27;;;;;;;17.20;13.25;;;15.60;99.90;;;;;;5047620;28;20051;-58
2023/09/28 01:01:55;;;;;;;13.60;11.88;;;15.60;99.90;;;;;;5044994;28;20107;-57
2023/09/28 01:04:22;;;;;;;21.42;15.35;;;15.50;99.90;;;;;;5045166;28;20028;-57
2023/09/28 01:06:48;;;;;;;17.45;14.05;;;15.60;99.90;;;;;;5039539;28;20068;-57
2023/09/28 01:09:15;;;;;;;18.85;14.57;;;15.60;99.90;;;;;;5045406;28;20467;-57
2023/09/28 01:11:41;;;;;;;20.02;14.95;;;15.50;99.90;;;;;;5045887;28;20036;-57
2023/09/28 01:14:07;;;;;;;17.63;14.75;;;15.50;99.90;;;;;;5045710;28;20106;-57
2023/09/28 01:16:33;;;;;;;19.00;14.52;;;15.40;99.90;;;;;;5048044;28;20328;-58
2023/09/28 01:18:59;;;;;;;22.27;15.45;;;15.40;99.90;;;;;;5042677;28;20433;-57
2023/09/28 01:21:24;;;;;;;16.98;14.43;;;15.40;99.90;;;;;;5043763;28;20422;-57
2023/09/28 01:23:51;;;;;;;19.67;14.38;;;15.40;99.90;;;;;;5045629;28;20071;-57
2023/09/28 01:26:16;;;;;;;16.55;13.02;;;15.30;99.90;;;;;;5046085;28;20031;-57
2023/09/28 01:28:42;;;;;;;16.30;13.38;;;15.30;99.90;;;;;;5047748;28;20037;-57
2023/09/28 01:31:08;;;;;;;22.35;15.90;;;15.20;99.90;;;;;;5046546;28;20028;-58
2023/09/28 01:33:33;;;;;;;22.02;15.38;;;15.20;99.90;;;;;;5047600;28;20051;-57
2023/09/28 01:35:59;;;;;;;17.30;13.30;;;15.20;99.90;;;;;;5045291;28;20036;-57
2023/09/28 01:38:39;;;;;;;20.38;14.63;;;15.20;99.90;;;;;;5041595;28;20036;-57
2023/09/28 01:41:04;;;;;;;20.55;15.20;;;15.20;99.90;;;;;;5046067;28;20426;-58
2023/09/28 01:43:30;;;;;;;17.75;14.45;;;15.20;99.90;;;;;;5047358;28;20025;-58
2023/09/28 01:45:55;;;;;;;21.73;14.57;;;15.20;99.90;;;;;;5045971;28;20520;-58
2023/09/28 01:48:21;;;;;;;21.17;14.98;;;15.20;99.90;;;;;;5044513;28;20029;-57
2023/09/28 01:50:46;;;;;;;21.20;14.55;;;15.20;99.90;;;;;;5045662;28;20398;-57
2023/09/28 01:53:12;;;;;;;19.67;14.70;;;15.10;99.90;;;;;;5045635;28;20043;-57
2023/09/28 01:55:37;;;;;;;16.95;14.07;;;15.10;99.90;;;;;;5048402;28;20037;-58
2023/09/28 01:58:07;;;;;;;19.95;15.95;;;15.10;99.90;;;;;;5046448;28;20036;-56
2023/09/28 02:00:33;;;;;;;18.60;13.95;;;15.10;99.90;;;;;;5038321;28;20040;-57
2023/09/28 02:02:59;;;;;;;19.60;14.30;;;15.00;99.90;;;;;;5045270;28;20017;-56
2023/09/28 02:05:32;;;;;;;17.45;13.77;;;15.00;99.90;;;;;;5046678;28;20143;-57
2023/09/28 02:07:59;;;;;;;19.88;14.10;;;15.00;99.90;;;;;;5045892;28;20103;-57
2023/09/28 02:10:25;;;;;;;16.25;13.65;;;15.00;99.90;;;;;;5043957;28;20052;-56
2023/09/28 02:12:53;;;;;;;23.70;14.38;;;14.90;99.90;;;;;;5047259;28;20029;-57
2023/09/28 02:15:19;;;;;;;18.27;14.32;;;14.90;99.90;;;;;;5046468;28;20523;-56
2023/09/28 02:17:44;;;;;;;19.05;15.48;;;14.90;99.90;;;;;;5045074;28;20035;-57
2023/09/28 02:20:15;;;;;;;17.23;13.65;;;14.90;99.90;;;;;;5037722;28;20060;-56
2023/09/28 02:22:44;;;;;;;;;;;14.90;99.90;;;;;;5047752;28;20055;-57
2023/09/28 02:25:30;;;;;;;21.90;15.27;;;14.90;99.90;;;;;;5045317;28;20407;-56
2023/09/28 02:27:55;;;;;;;19.55;15.02;;;14.90;99.90;;;;;;5046358;28;20068;-57
2023/09/28 02:30:22;;;;;;;21.00;16.20;;;15.00;99.90;;;;;;5043393;28;20060;-57
2023/09/28 02:32:52;;;;;;;17.48;14.32;;;14.90;99.90;;;;;;5045559;28;20032;-56
2023/09/28 02:35:18;;;;;;;22.48;17.00;;;14.90;99.90;;;;;;5045771;28;20104;-56
2023/09/28 02:37:46;;;;;;;22.00;15.30;;;14.90;99.90;;;;;;5045388;28;20116;-57
2023/09/28 02:40:16;;;;;;;19.42;15.35;;;14.90;99.90;;;;;;5046517;28;20522;-57
2023/09/28 02:42:42;;;;;;;17.30;14.63;;;14.90;99.90;;;;;;5046184;28;20246;-57
2023/09/28 02:45:11;;;;;;;22.90;15.98;;;14.90;99.90;;;;;;5046803;28;20104;-57
2023/09/28 02:47:46;;;;;;;19.83;13.85;;;14.90;99.90;;;;;;5046820;28;20390;-57
2023/09/28 02:50:13;;;;;;;20.17;16.08;;;14.90;99.90;;;;;;5046164;28;20100;-57
2023/09/28 02:52:41;;;;;;;24.23;18.48;;;14.90;99.90;;;;;;5045984;28;20025;-56
2023/09/28 02:55:07;;;;;;;18.25;14.68;;;14.90;99.90;;;;;;5045291;28;20035;-57
2023/09/28 02:57:34;;;;;;;19.52;14.77;;;14.80;99.90;;;;;;5046633;28;20031;-57
2023/09/28 02:59:59;;;;;;;21.63;15.95;;;14.80;99.90;;;;;;5047084;28;20040;-57
2023/09/28 03:02:25;;;;;;;20.85;15.32;;;14.80;99.90;;;;;;5045091;28;21091;-57
2023/09/28 03:04:50;;;;;;;19.10;14.38;;;14.80;99.90;;;;;;5049947;28;20037;-57
2023/09/28 03:07:17;;;;;;;19.05;14.45;;;14.70;99.90;;;;;;5050577;28;20021;-57
2023/09/28 03:09:42;;;;;;;18.83;14.27;;;14.60;99.90;;;;;;5050518;28;20013;-57
2023/09/28 03:12:08;;;;;;;21.60;15.15;;;14.70;99.90;;;;;;5043398;28;20071;-57
2023/09/28 03:14:34;;;;;;;20.52;14.82;;;14.70;99.90;;;;;;5051359;28;20028;-57
2023/09/28 03:16:59;;;;;;;20.10;14.80;;;14.60;99.90;;;;;;5050079;28;20028;-57
2023/09/28 03:19:25;;;;;;;19.35;14.75;;;14.60;99.90;;;;;;5050450;28;20033;-57
2023/09/28 03:21:50;;;;;;;19.85;13.57;;;14.60;99.90;;;;;;5048954;28;20017;-58
2023/09/28 03:24:16;;;;;;;16.25;13.68;;;14.60;99.90;;;;;;5049043;28;20029;-57
2023/09/28 03:26:42;;;;;;;20.38;13.73;;;14.60;99.90;;;;;;5050082;28;20043;-57
2023/09/28 03:29:07;;;;;;;17.63;14.30;;;14.60;99.90;;;;;;5049754;28;20033;-57
2023/09/28 03:31:34;;;;;;;17.52;14.30;;;14.60;99.90;;;;;;5050210;28;20464;-57
2023/09/28 03:33:59;;;;;;;19.95;14.60;;;14.60;99.90;;;;;;5042872;28;20028;-57
2023/09/28 03:36:25;;;;;;;22.33;15.40;;;14.60;99.90;;;;;;5050165;28;20911;-56
2023/09/28 03:38:51;;;;;;;20.27;14.80;;;14.50;99.90;;;;;;5049075;28;20074;-55
2023/09/28 03:41:17;;;;;;;19.20;15.02;;;14.50;99.90;;;;;;5049705;28;20044;-55
2023/09/28 03:43:48;;;;;;;20.63;15.90;;;14.50;99.90;;;;;;5046042;28;20451;-55
2023/09/28 03:46:18;;;;;;;19.90;14.95;;;14.50;99.90;;;;;;5045480;28;20703;-56
2023/09/28 03:48:45;;;;;;;;;;;14.60;99.90;;;;;;5049805;28;20059;-57
2023/09/28 03:51:11;;;;;;;19.05;14.70;;;14.50;99.90;;;;;;5046099;28;19910;-57
2023/09/28 03:53:39;;;;;;;19.77;14.15;;;14.50;99.90;;;;;;5045967;28;20040;-57
2023/09/28 03:56:05;;;;;;;17.73;13.98;;;14.50;99.90;;;;;;5046817;28;20028;-56
2023/09/28 03:58:30;;;;;;;18.70;15.85;;;14.50;99.90;;;;;;5041739;28;20031;-56
2023/09/28 04:00:57;;;;;;;19.20;15.27;;;14.50;99.90;;;;;;5042726;28;20409;-56
2023/09/28 04:03:23;;;;;;;17.52;14.43;;;14.50;99.90;;;;;;5040059;28;20518;-57
2023/09/28 04:05:49;;;;;;;24.10;16.10;;;14.40;99.90;;;;;;5043016;28;20033;-57
2023/09/28 04:08:15;;;;;;;23.42;16.77;;;14.40;99.90;;;;;;5044811;28;20433;-56
2023/09/28 04:10:41;;;;;;;23.45;17.13;;;14.40;99.90;;;;;;5045879;28;20025;-57
2023/09/28 04:13:07;;;;;;;23.95;18.52;;;14.40;99.90;;;;;;5045680;28;20374;-57
2023/09/28 04:15:33;;;;;;;24.42;17.67;;;14.60;99.90;;;;;;5044205;28;20175;-57
2023/09/28 04:17:59;;;;;;;20.55;17.35;;;14.60;99.90;;;;;;5044892;28;20068;-57
2023/09/28 04:20:24;;;;;;;18.42;14.82;;;14.60;99.90;;;;;;5043052;28;20033;-57
2023/09/28 04:22:50;;;;;;;19.17;15.55;;;14.60;99.90;;;;;;5045605;28;20399;-57
2023/09/28 04:25:18;;;;;;;21.45;14.55;;;14.60;99.90;;;;;;5043946;28;20029;-57
2023/09/28 04:27:44;;;;;;;26.35;18.35;;;14.60;99.90;;;;;;5041870;28;20036;-57
2023/09/28 04:30:10;;;;;;;23.48;16.30;;;14.80;99.90;;;;;;5040446;28;20391;-57
2023/09/28 04:32:35;;;;;;;26.65;17.48;;;14.90;99.90;;;;;;5050638;28;20111;-56
2023/09/28 04:35:05;;;;;;;25.20;16.55;;;15.00;99.90;;;;;;5043118;28;20502;-56
2023/09/28 04:37:31;;;;;;;24.13;17.25;;;15.20;99.90;;;;;;5048159;28;20059;-56
2023/09/28 04:39:57;;;;;;;24.20;16.98;;;15.30;99.90;;;;;;5035480;28;20140;-56
2023/09/28 04:42:23;;;;;;;24.00;17.70;;;15.30;99.90;;;;;;5038274;28;20057;-56
2023/09/28 04:44:49;;;;;;;21.58;17.20;;;15.50;99.90;;;;;;5033423;28;20025;-57
2023/09/28 04:47:15;;;;;;;27.73;16.88;;;15.60;99.90;;;;;;5036975;28;20022;-60
2023/09/28 04:49:41;;;;;;;26.65;16.88;;;15.70;99.90;;;;;;5037195;28;20107;-57
2023/09/28 04:52:09;;;;;;;23.15;14.88;;;15.80;99.90;;;;;;5034905;28;20033;-57
2023/09/28 04:54:35;;;;;;;21.60;14.48;;;15.80;99.90;;;;;;5034509;28;20041;-57
2023/09/28 04:57:01;;;;;;;18.10;14.07;;;15.80;99.90;;;;;;5033020;28;20043;-57
2023/09/28 04:59:27;;;;;;;17.90;14.18;;;15.70;99.90;;;;;;5034165;28;20025;-57
2023/09/28 05:01:53;;;;;;;21.52;15.57;;;15.70;99.90;;;;;;5032806;28;20517;-57
2023/09/28 05:04:18;;;;;;;25.17;14.38;;;15.70;99.90;;;;;;5032019;28;20053;-57
2023/09/28 05:06:44;;;;;;;18.58;14.43;;;15.80;99.90;;;;;;5041192;28;20032;-57
2023/09/28 05:09:10;;;;;;;19.75;14.55;;;15.80;99.90;;;;;;5031202;28;20021;-58
2023/09/28 05:11:35;;;;;;;19.52;12.93;;;15.80;99.90;;;;;;5030676;28;20022;-57
2023/09/28 05:14:01;;;;;;;23.75;15.15;;;15.80;99.90;;;;;;5030271;28;20029;-57
2023/09/28 05:16:27;;;;;;;17.73;12.85;;;15.80;99.90;;;;;;5034033;28;20124;-57
2023/09/28 05:18:53;;;;;;;19.20;13.98;;;15.60;99.90;;;;;;5032889;28;20025;-57
2023/09/28 05:21:18;;;;;;;16.20;12.70;;;15.60;99.90;;;;;;5036864;28;20449;-57
2023/09/28 05:23:44;;;;;;;15.55;12.73;;;15.60;99.90;;;;;;5042382;28;20031;-57
2023/09/28 05:26:10;;;;;;;19.90;14.15;;;15.50;99.90;;;;;;5031548;28;20052;-57
2023/09/28 05:28:35;;;;;;;16.00;12.30;;;15.40;99.90;;;;;;5036389;28;20033;-57
2023/09/28 05:31:00;;;;;;;18.08;12.40;;;15.30;99.90;;;;;;5033251;28;20096;-56
2023/09/28 05:33:27;;;;;;;14.80;11.73;;;15.20;99.90;;;;;;5030781;28;20033;-57
2023/09/28 05:35:53;;;;;;;23.75;15.63;;;15.20;99.90;;;;;;5033241;28;20037;-57
2023/09/28 05:38:18;;;;;;;20.95;14.60;;;15.30;99.90;;;;;;5043645;28;20025;-56
2023/09/28 05:40:44;;;;;;;17.70;13.82;;;15.30;99.90;;;;;;5045331;28;20061;-57
2023/09/28 05:43:09;;;;;;;17.85;13.98;;;15.30;99.90;;;;;;5034066;28;20033;-58
2023/09/28 05:45:35;;;;;;;19.10;14.18;;;15.50;99.90;;;;;;5038340;28;20482;-57
2023/09/28 05:48:01;;;;;;;20.02;13.70;;;15.60;99.90;;;;;;5042624;28;20017;-57
2023/09/28 05:50:26;;;;;;;23.50;15.50;;;15.80;99.90;;;;;;5041784;28;20443;-57
2023/09/28 05:52:55;;;;;;;21.08;14.10;;;16.00;99.90;;;;;;5039095;28;20112;-57
2023/09/28 05:55:22;;;;;;;23.85;15.02;;;16.10;99.90;;;;;;5042228;28;20017;-58
2023/09/28 05:57:47;;;;;;;22.80;14.52;;;16.30;99.90;;;;;;5038030;28;20056;-57
2023/09/28 06:00:15;;;;;;;19.45;15.05;;;16.40;99.90;;;;;;5033646;28;20368;-57
2023/09/28 06:02:41;;;;;;;17.23;12.95;;;16.60;99.90;;;;;;5031922;28;20108;-58
2023/09/28 06:05:08;;;;;;;20.88;12.25;;;16.60;99.90;;;;;;5032659;28;20146;-57
2023/09/28 06:07:34;;;;;;;15.00;11.70;;;16.80;99.90;;;;;;5030776;28;20018;-59
2023/09/28 06:09:59;;;;;;;17.70;11.18;;;16.90;99.90;;;;;;5037091;28;20052;-58
2023/09/28 06:12:25;;;;;;;17.00;11.65;;;17.00;99.90;;;;;;5031912;28;20033;-58
2023/09/28 06:14:50;;;;;;;14.60;11.55;;;17.10;99.90;;;;;;5036112;28;20248;-58
2023/09/28 06:17:17;;;;;;;20.27;12.57;;;17.20;99.90;;;;;;5036035;28;20450;-59
2023/09/28 06:19:42;;;;;;;17.98;10.25;;;17.30;99.90;;;;;;5042048;28;20108;-58
2023/09/28 06:22:09;;;;;;;15.73;10.00;;;17.40;99.90;;;;;;5039189;28;20092;-59
2023/09/28 06:24:36;;;;;;;13.75;10.43;;;17.40;99.90;;;;;;5042197;28;20402;-59
2023/09/28 06:27:02;;;;;;;15.77;11.38;;;17.50;99.90;;;;;;5035354;28;20049;-58
2023/09/28 06:29:28;;;;;;;16.30;10.63;;;17.60;99.90;;;;;;5033258;28;20059;-59
2023/09/28 06:31:54;;;;;;;13.50;10.55;;;17.60;99.90;;;;;;5032476;28;20018;-59
2023/09/28 06:34:19;;;;;;;13.50;9.82;;;17.70;99.90;;;;;;5033317;28;20391;-59
2023/09/28 06:36:45;;;;;;;13.07;10.07;;;17.80;99.90;;;;;;5033925;28;20034;-59
2023/09/28 06:39:10;;;;;;;12.80;9.95;;;17.80;99.90;;;;;;5035134;28;20064;-57
2023/09/28 06:41:37;;;;;;;12.90;10.43;;;17.80;99.90;;;;;;5040144;28;20021;-57
2023/09/28 06:44:03;;;;;;;18.33;9.45;;;17.80;99.90;;;;;;5039317;28;20017;-57
2023/09/28 06:46:28;;;;;;;15.93;11.25;;;17.90;99.90;;;;;;5045291;28;20021;-57
2023/09/28 06:48:54;;;;;;;14.25;10.65;;;17.90;99.90;;;;;;5035239;28;20572;-57
2023/09/28 06:51:21;;;;;;;13.55;9.35;;;18.00;99.90;;;;;;5044672;28;20025;-57
2023/09/28 06:53:47;;;;;;;9.75;8.75;;;18.00;99.90;;;;;;5041385;28;20128;-57
2023/09/28 06:56:13;;;;;;;11.43;9.55;;;18.00;99.90;;;;;;5047134;28;20105;-57
2023/09/28 06:58:38;;;;;;;12.65;9.30;;;18.10;99.90;;;;;;5040324;28;20026;-57
2023/09/28 07:01:04;;;;;;;12.50;9.63;;;18.10;99.90;;;;;;5039706;28;20584;-57
2023/09/28 07:03:31;;;;;;;13.70;9.40;;;18.10;99.90;;;;;;5035862;28;20390;-57
2023/09/28 07:05:56;;;;;;;13.45;9.20;;;18.10;99.90;;;;;;5036616;28;20026;-57
2023/09/28 07:08:22;;;;;;;10.77;8.95;;;18.20;99.90;;;;;;5037778;28;20025;-57
2023/09/28 07:10:47;;;;;;;15.23;9.75;;;18.20;99.90;;;;;;5035257;28;20139;-56
2023/09/28 07:13:13;;;;;;;11.00;8.55;;;18.30;99.90;;;;;;5041108;28;20607;-57
2023/09/28 07:15:40;;;;;;;13.13;9.70;;;18.50;99.90;;;;;;5035406;28;20060;-57
2023/09/28 07:18:06;;;;;;;12.45;8.30;;;18.50;99.90;;;;;;5039790;28;20029;-57
2023/09/28 07:20:31;;;;;;;15.07;9.40;;;18.70;99.90;;;;;;5043637;28;20681;-57
2023/09/28 07:22:57;;;;;;;8.93;7.82;;;18.70;99.90;;;;;;5041448;28;20503;-58
2023/09/28 07:25:25;;;;;;;12.07;9.10;;;18.90;99.90;;;;;;5045281;28;20709;-57
2023/09/28 07:27:52;;;;;;;11.50;8.32;;;19.00;99.90;;;;;;5040728;28;20534;-58
2023/09/28 07:30:22;;;;;;;9.85;7.82;;;19.00;99.90;;;;;;5037905;28;20398;-58
2023/09/28 07:32:49;;;;;;;13.27;8.23;;;19.10;99.90;;;;;;5034841;28;20087;-58
2023/09/28 07:35:16;;;;;;;11.15;8.25;;;19.20;99.90;;;;;;5034663;28;20045;-58
2023/09/28 07:37:43;;;;;;;10.60;7.82;;;19.30;99.90;;;;;;5041026;28;20040;-58
2023/09/28 07:40:12;;;;;;;8.50;7.10;;;19.20;99.90;;;;;;5035395;28;20349;-58
2023/09/28 07:42:40;;;;;;;12.55;7.70;;;19.30;99.90;;;;;;5039976;28;20067;-58
2023/09/28 07:45:06;;;;;;;10.60;8.02;;;19.30;99.90;;;;;;5041670;28;20405;-58
2023/09/28 07:47:32;;;;;;;9.90;7.60;;;19.30;99.90;;;;;;5042909;28;20028;-58
2023/09/28 07:49:58;;;;;;;12.05;7.13;;;19.30;99.90;;;;;;5044494;28;20104;-58
2023/09/28 07:52:24;;;;;;;9.27;7.07;;;19.30;99.90;;;;;;5040591;28;20119;-58
2023/09/28 07:54:50;;;;;;;11.13;8.80;;;19.40;99.90;;;;;;5043460;28;20116;-59
2023/09/28 07:57:15;;;;;;;12.30;8.40;;;19.40;99.90;;;;;;5043765;28;20086;-59
2023/09/28 07:59:41;;;;;;;13.13;8.05;;;19.40;99.90;;;;;;5048406;28;20021;-58
2023/09/28 08:02:09;;;;;;;10.65;7.78;;;19.40;99.90;;;;;;5035583;28;20040;-59
2023/09/28 08:04:38;;;;;;;8.93;7.65;;;19.40;99.90;;;;;;5043073;28;20029;-58
2023/09/28 08:07:04;;;;;;;16.60;7.57;;;19.40;99.90;;;;;;5037942;28;20020;-58
2023/09/28 08:09:30;;;;;;;12.25;8.57;;;19.40;99.90;;;;;;5038846;28;20402;-58
2023/09/28 08:11:55;;;;;;;7.88;6.97;;;19.50;99.90;;;;;;5040685;28;20063;-58
2023/09/28 08:14:21;;;;;;;10.57;7.70;;;19.60;99.90;;;;;;5039992;28;20448;-58
2023/09/28 08:16:48;;;;;;;10.25;7.57;;;19.60;99.90;;;;;;5037806;28;20422;-58
2023/09/28 08:19:14;;;;;;;11.55;7.95;;;19.80;99.90;;;;;;5024573;28;20022;-58
2023/09/28 08:21:40;;;;;;;9.32;6.47;;;19.80;99.90;;;;;;5042882;28;20040;-58
2023/09/28 08:24:07;;;;;;;9.98;7.03;;;19.80;99.90;;;;;;5037874;28;20021;-59
2023/09/28 08:26:34;;;;;;;9.10;7.40;;;19.90;99.90;;;;;;5040749;28;20108;-59
2023/09/28 08:29:00;;;;;;;10.60;7.30;;;20.00;99.90;;;;;;5035056;28;20317;-59
2023/09/28 08:31:27;;;;;;;8.90;6.00;;;20.10;99.90;;;;;;5046551;28;20033;-59
2023/09/28 08:33:52;;;;;;;9.48;6.75;;;20.20;99.90;;;;;;5041600;28;20469;-59
2023/09/28 08:36:18;;;;;;;10.55;6.93;;;20.30;99.90;;;;;;5038596;28;20022;-59
2023/09/28 08:38:44;;;;;;;8.50;7.05;;;20.30;99.90;;;;;;5034983;28;20025;-59
2023/09/28 08:41:10;;;;;;;9.00;6.45;;;20.40;99.90;;;;;;5035552;28;20108;-59
2023/09/28 08:44:09;;;;;;;10.38;6.95;;;20.60;99.90;;;;;;5036083;28;21234;-58
2023/09/28 08:46:40;;;;;;;7.57;6.38;;;20.80;99.90;;;;;;5009561;28;20094;-58
2023/09/28 08:49:07;;;;;;;7.13;6.10;;;20.90;99.90;;;;;;5047445;28;20017;-59
2023/09/28 08:51:38;;;;;;;9.13;5.95;;;21.00;99.90;;;;;;5034829;28;20025;-59
2023/09/28 08:54:07;;;;;;;11.85;6.32;;;21.30;99.90;;;;;;5038510;28;20032;-59
2023/09/28 08:56:35;;;;;;;7.28;6.03;;;22.50;99.90;;;;;;5042716;28;20033;-59
2023/09/28 08:59:03;;;;;;;8.38;5.05;;;24.10;99.90;;;;;;5040407;28;20075;-60
2023/09/28 09:01:31;;;;;;;6.10;4.97;;;25.60;99.90;;;;;;5038518;28;20025;-60
2023/09/28 09:03:57;;;;;;;7.05;4.35;;;27.20;96.00;;;;;;5039297;28;20164;-60
2023/09/28 09:06:24;;;;;;;7.00;4.10;;;28.50;92.90;;;;;;5040152;28;20490;-58
2023/09/28 09:08:50;;;;;;;5.22;4.10;;;29.70;90.60;;;;;;5038309;28;20037;-59
2023/09/28 09:11:16;;;;;;;5.13;3.78;;;30.90;86.40;;;;;;5042211;28;20025;-59
2023/09/28 09:13:55;;;;;;;5.20;4.25;;;32.00;83.10;;;;;;5041423;28;20025;-59
2023/09/28 09:16:26;;;;;;;4.60;3.35;;;32.90;78.30;;;;;;5035288;28;20033;-60
2023/09/28 09:18:53;;;;;;;5.47;4.03;;;33.40;74.10;;;;;;5037176;28;20196;-60
2023/09/28 09:21:19;;;;;;;4.82;3.03;;;32.80;72.60;;;;;;5038092;28;20040;-59
2023/09/28 09:24:03;;;;;;;6.50;3.55;;;32.70;73.80;;;;;;5039534;28;20079;-59
2023/09/28 09:26:41;;;;;;;4.38;3.42;;;33.20;72.40;;;;;;5044973;28;20032;-59
2023/09/28 09:29:07;;;;;;;3.97;3.28;;;33.20;71.00;;;;;;5035522;28;20034;-60
2023/09/28 09:31:33;;;;;;;4.85;3.08;;;33.70;70.70;;;;;;5034522;28;20483;-60
2023/09/28 09:34:05;;;;;;;8.18;3.58;;;34.00;69.20;;;;;;5034373;28;20032;-60
2023/09/28 09:36:30;;;;;;;6.32;3.47;;;34.40;67.10;;;;;;5037192;28;20083;-60
2023/09/28 09:38:58;;;;;;;9.55;3.92;;;34.80;68.10;;;;;;5046326;28;20041;-59
2023/09/28 09:41:24;;;;;;;6.65;3.85;;;34.40;66.90;;;;;;5042339;28;20095;-60
2023/09/28 09:43:51;;;;;;;9.60;3.72;;;34.50;66.90;;;;;;5039630;28;20056;-60
2023/09/28 09:46:17;;;;;;;8.00;3.25;;;34.50;66.50;;;;;;5036479;28;20022;-60
2023/09/28 09:48:44;;;;;;;6.75;3.50;;;34.80;66.90;;;;;;5034850;28;20359;-60
2023/09/28 09:51:17;;;;;;;4.55;3.40;;;34.70;65.90;;;;;;5044860;28;20017;-61
2023/09/28 09:53:44;;;;;;;6.60;3.50;;;35.00;65.80;;;;;;5039036;28;20029;-60
2023/09/28 09:56:12;;;;;;;3.58;3.10;;;35.00;66.90;;;;;;5037128;28;20112;-60
2023/09/28 09:58:48;;;;;;;4.72;2.67;;;35.80;64.40;;;;;;5040676;28;20470;-60
2023/09/28 10:01:16;;;;;;;5.32;3.45;;;36.20;63.30;;;;;;5037319;28;20048;-60
2023/09/28 10:03:50;;;;;;;6.75;3.35;;;35.50;65.20;;;;;;5038399;28;20021;-60
2023/09/28 10:06:21;;;;;;;5.85;3.90;;;35.70;64.20;;;;;;5041108;28;20021;-60
2023/09/28 10:08:49;;;;;;;5.63;3.30;;;36.00;63.90;;;;;;5039722;28;20043;-60
2023/09/28 10:11:16;;;;;;;12.07;3.40;;;35.70;64.10;;;;;;5039078;28;20016;-60
2023/09/28 10:13:42;;;;;;;4.50;3.33;;;36.00;62.50;;;;;;5036007;28;20025;-60
2023/09/28 10:16:12;;;;;;;4.15;2.90;;;36.00;62.20;;;;;;5035359;28;20025;-60
2023/09/28 10:18:40;;;;;;;4.55;2.88;;;36.10;63.50;;;;;;5041148;28;20036;-60
2023/09/28 10:21:06;;;;;;;4.43;3.30;;;36.00;64.10;;;;;;5038378;28;20032;-60
2023/09/28 10:23:32;;;;;;;7.25;3.30;;;35.80;63.60;;;;;;5032061;28;20029;-59
2023/09/28 10:26:11;;;;;;;4.65;3.30;;;36.40;62.40;;;;;;5041701;28;20029;-59
2023/09/28 10:28:56;;;;;;;7.25;3.05;;;36.80;61.50;;;;;;5037700;28;20045;-59
2023/09/28 10:31:22;;;;;;;6.93;2.80;;;37.20;60.80;;;;;;5040150;28;20060;-59
2023/09/28 10:34:00;;;;;;;7.10;3.40;;;37.10;61.80;;;;;;5037363;28;20025;-59
2023/09/28 10:36:26;;;;;;;3.23;2.93;;;37.30;59.80;;;;;;5039096;28;20037;-60
2023/09/28 10:39:14;;;;;;;4.25;3.08;;;37.00;61.20;;;;;;5038928;28;20105;-58
2023/09/28 10:41:49;;;;;;;5.85;3.28;;;36.60;62.50;;;;;;5040166;28;20025;-60
2023/09/28 10:44:16;;;;;;;5.55;3.15;;;36.50;61.40;;;;;;5040579;28;20116;-60
2023/09/28 10:46:47;;;;;;;5.35;3.05;;;36.60;61.80;;;;;;5040332;28;20437;-60
2023/09/28 10:49:23;;;;;;;3.53;3.00;;;36.10;62.30;;;;;;5040059;28;20066;-59
2023/09/28 10:51:51;;;;;;;4.03;3.03;;;36.30;61.80;;;;;;5037353;28;20513;-59
2023/09/28 10:54:16;;;;;;;5.82;3.05;;;36.70;62.00;;;;;;5036722;28;20022;-58
2023/09/28 10:56:42;;;;;;;6.63;3.35;;;37.00;60.80;;;;;;5040640;28;20023;-60
2023/09/28 10:59:09;;;;;;;5.00;3.28;;;36.80;61.80;;;;;;5038886;28;20110;-59
2023/09/28 11:01:43;;;;;;;4.95;3.53;;;36.90;62.00;;;;;;5032407;28;20021;-60
2023/09/28 11:04:09;;;;;;;5.28;3.05;;;36.90;61.60;;;;;;5033655;28;20475;-60
2023/09/28 11:06:35;;;;;;;7.25;3.10;;;37.00;61.10;;;;;;5038377;28;20410;-60
2023/09/28 11:09:01;;;;;;;6.32;3.28;;;37.00;61.80;;;;;;5036233;28;20063;-60
2023/09/28 11:11:28;;;;;;;4.55;3.10;;;37.10;60.30;;;;;;5037102;28;20234;-59
2023/09/28 11:13:57;;;;;;;5.38;3.58;;;37.20;61.00;;;;;;5038853;28;20017;-59
2023/09/28 11:16:23;;;;;;;6.05;3.17;;;36.60;61.20;;;;;;5043470;28;20057;-60
2023/09/28 11:18:49;;;;;;;7.38;3.00;;;36.30;62.40;;;;;;5036306;28;20100;-60
2023/09/28 11:21:15;;;;;;;3.70;3.17;;;36.00;62.60;;;;;;5034866;28;20439;-60
2023/09/28 11:23:41;;;;;;;4.57;3.22;;;36.20;62.80;;;;;;5040007;28;20033;-60
2023/09/28 11:26:11;;;;;;;5.57;2.92;;;36.50;62.10;;;;;;5042226;28;20483;-60
2023/09/28 11:28:38;;;;;;;8.00;3.17;;;37.10;60.70;;;;;;5045557;28;20032;-59
2023/09/28 11:31:14;;;;;;;5.05;2.70;;;37.40;61.00;;;;;;5046181;28;20024;-59
2023/09/28 11:33:40;;;;;;;6.32;3.75;;;37.50;59.60;;;;;;5046712;28;20059;-60
2023/09/28 11:36:07;;;;;;;5.22;3.53;;;37.00;61.20;;;;;;5044374;28;20449;-60
2023/09/28 11:38:33;;;;;;;5.15;3.50;;;37.30;60.10;;;;;;5043583;28;20460;-60
2023/09/28 11:41:01;;;;;;;6.70;4.15;;;37.20;60.50;;;;;;5046228;28;20021;-59
2023/09/28 11:43:27;;;;;;;5.40;3.50;;;36.90;59.50;;;;;;5048282;28;20084;-59
2023/09/28 11:45:52;;;;;;;7.50;3.72;;;37.20;60.10;;;;;;5045082;28;20048;-60
2023/09/28 11:48:21;;;;;;;4.68;4.00;;;36.60;59.40;;;;;;5041347;28;20017;-59
2023/09/28 11:50:47;;;;;;;4.87;3.07;;;36.10;60.00;;;;;;5040477;28;20017;-60
2023/09/28 11:53:14;;;;;;;6.55;3.08;;;36.20;63.10;;;;;;5043144;28;20037;-60
2023/09/28 11:55:41;;;;;;;7.63;3.30;;;36.50;61.60;;;;;;5043265;28;20029;-60
2023/09/28 11:58:09;;;;;;;5.00;3.47;;;36.10;61.60;;;;;;5043016;28;20286;-60
2023/09/28 12:00:35;;;;;;;4.00;2.78;;;36.40;60.90;;;;;;5051378;28;20306;-60
2023/09/28 12:03:03;;;;;;;4.57;3.05;;;36.70;60.80;;;;;;5039738;28;20034;-60
2023/09/28 12:05:29;;;;;;;3.65;2.78;;;37.00;60.90;;;;;;5043474;28;20533;-58
2023/09/28 12:07:55;;;;;;;4.95;3.22;;;36.40;61.30;;;;;;5048903;28;20044;-60
2023/09/28 12:10:21;;;;;;;11.80;3.88;;;36.10;61.20;;;;;;5048589;28;20028;-59
2023/09/28 12:12:46;;;;;;;4.03;3.35;;;35.90;60.70;;;;;;5039490;28;20671;-60
2023/09/28 12:15:12;;;;;;;7.78;4.68;;;35.30;62.50;;;;;;5048740;28;20025;-60
2023/09/28 12:17:41;;;;;;;5.10;3.22;;;34.50;63.00;;;;;;5050415;28;20028;-60
2023/09/28 12:20:08;;;;;;;;;;;34.00;65.00;;;;;;5051114;28;20167;-58
2023/09/28 12:22:34;;;;;;;7.43;4.28;;;33.70;66.80;;;;;;5042864;28;19905;-59
2023/09/28 12:25:00;;;;;;;5.78;3.50;;;33.30;65.20;;;;;;5044324;28;20035;-59
2023/09/28 12:27:26;;;;;;;4.80;3.70;;;33.00;66.70;;;;;;5041811;28;20034;-59
2023/09/28 12:29:52;;;;;;;6.45;4.03;;;32.30;68.20;;;;;;5046415;28;20020;-59
2023/09/28 12:32:17;;;;;;;6.35;3.85;;;32.20;68.70;;;;;;5042134;28;20025;-58
2023/09/28 12:34:44;;;;;;;8.23;4.15;;;32.10;70.50;;;;;;5040466;28;20386;-58